Main page
METAR-TAF:

METAR-TAF

Airports :

Southampton Airport

Southampton, England

latitude: 50-54N, longitude: 001-24W, elevation: 9 m

Current weather observation

The report was made 4 hours and 48 minutes ago, at 17:20 UTC
Wind 8 kt from the North/Northwest, varying between West and North
Temperature 8°C
Humidity 46%
Pressure 1022 hPa
Visibility 10 km or more
Few clouds at a height of 4500 ft
showers in vicinity

METAR: EGHI 111720Z 33008KT 260V010 9999 VCSH FEW045 08/M03 Q1022

Time: 23:08 (22:08 UTC)

Forecast

The report was made 5 hours and 8 minutes ago, at 17:00 UTC
Forecast valid from 11 at 18 UTC to 11 at 22 UTC
Wind 9 kt from the West/Northwest
Visibility 10 km or more
Few clouds at a height of 4000 ft
Probability 40% :
Temporary
from 11 at 18 UTC to 11 at 22 UTC
Visibility: 7000 m
Broken clouds at a height of 1400 ft
rain showers

TAF: EGHI 111700Z 1118/1122 30009KT 9999 FEW040 PROB40 TEMPO 1118/1122 7000 SHRA BKN014

Weather observations and forecasts of more than 4000 airports (METAR and TAF reports).

The available stations are represented by yellow and red dots on the map.

Hover mouse over dot to see the name of the station.

Then click to see weather observations and forecasts.

To change the map : click on the green buttons with a black cross to zoom in, on the green button with a dash to zoom out, or on the green arrows for adjacent maps.


METAR-TAF: